sensor_id;sensor_type;location;lat;lon;timestamp;temperature;humidity
23403;DHT22;11874;48.228;11.684;2023-08-17T07:32:22;22.80;99.90
23403;DHT22;11874;48.228;11.684;2023-08-17T07:34:52;22.80;99.90
23403;DHT22;11874;48.228;11.684;2023-08-17T07:37:20;22.80;99.90
23403;DHT22;11874;48.228;11.684;2023-08-17T07:39:48;22.80;99.90
23403;DHT22;11874;48.228;11.684;2023-08-17T07:42:16;22.90;99.90
23403;DHT22;11874;48.228;11.684;2023-08-17T07:44:44;22.90;99.90
23403;DHT22;11874;48.228;11.684;2023-08-17T07:47:12;22.90;99.90
23403;DHT22;11874;48.228;11.684;2023-08-17T07:49:42;23.00;99.90
23403;DHT22;11874;48.228;11.684;2023-08-17T07:52:11;23.00;99.90
23403;DHT22;11874;48.228;11.684;2023-08-17T07:54:39;23.10;99.90
23403;DHT22;11874;48.228;11.684;2023-08-17T07:57:10;23.10;99.90
23403;DHT22;11874;48.228;11.684;2023-08-17T07:59:39;23.10;99.90
23403;DHT22;11874;48.228;11.684;2023-08-17T08:02:07;23.10;99.90
23403;DHT22;11874;48.228;11.684;2023-08-17T08:04:35;23.10;99.90
23403;DHT22;11874;48.228;11.684;2023-08-17T08:07:05;23.20;99.90
23403;DHT22;11874;48.228;11.684;2023-08-17T08:09:33;23.20;99.90
23403;DHT22;11874;48.228;11.684;2023-08-17T08:12:02;23.20;99.90
23403;DHT22;11874;48.228;11.684;2023-08-17T08:14:30;23.20;99.90
23403;DHT22;11874;48.228;11.684;2023-08-17T08:16:59;23.20;99.90
23403;DHT22;11874;48.228;11.684;2023-08-17T08:19:27;23.30;99.90
23403;DHT22;11874;48.228;11.684;2023-08-17T08:21:55;23.30;99.90
23403;DHT22;11874;48.228;11.684;2023-08-17T08:24:24;23.30;99.90
23403;DHT22;11874;48.228;11.684;2023-08-17T08:27:03;23.30;99.90
23403;DHT22;11874;48.228;11.684;2023-08-17T08:29:31;23.40;99.90
23403;DHT22;11874;48.228;11.684;2023-08-17T08:31:59;23.40;99.90
23403;DHT22;11874;48.228;11.684;2023-08-17T08:34:29;23.40;99.90
23403;DHT22;11874;48.228;11.684;2023-08-17T08:36:57;23.40;99.90
23403;DHT22;11874;48.228;11.684;2023-08-17T08:39:28;23.40;99.90
23403;DHT22;11874;48.228;11.684;2023-08-17T08:41:56;23.40;99.90
23403;DHT22;11874;48.228;11.684;2023-08-17T08:44:26;23.50;99.90
23403;DHT22;11874;48.228;11.684;2023-08-17T08:46:54;23.50;99.90
23403;DHT22;11874;48.228;11.684;2023-08-17T08:49:23;23.50;99.90
23403;DHT22;11874;48.228;11.684;2023-08-17T08:51:53;23.50;99.90
23403;DHT22;11874;48.228;11.684;2023-08-17T08:54:27;23.50;99.90
23403;DHT22;11874;48.228;11.684;2023-08-17T08:57:01;23.50;99.90
23403;DHT22;11874;48.228;11.684;2023-08-17T08:59:33;23.60;99.90
23403;DHT22;11874;48.228;11.684;2023-08-17T09:02:03;23.60;99.90
23403;DHT22;11874;48.228;11.684;2023-08-17T09:04:31;23.60;99.90
23403;DHT22;11874;48.228;11.684;2023-08-17T09:07:00;23.60;99.90
23403;DHT22;11874;48.228;11.684;2023-08-17T09:09:31;23.60;99.90
23403;DHT22;11874;48.228;11.684;2023-08-17T09:12:01;23.60;99.90
23403;DHT22;11874;48.228;11.684;2023-08-17T09:14:29;23.70;99.90
23403;DHT22;11874;48.228;11.684;2023-08-17T09:16:57;23.70;99.90
23403;DHT22;11874;48.228;11.684;2023-08-17T09:19:26;23.70;99.90
23403;DHT22;11874;48.228;11.684;2023-08-17T09:21:54;23.70;99.90
23403;DHT22;11874;48.228;11.684;2023-08-17T09:24:22;23.80;99.90
23403;DHT22;11874;48.228;11.684;2023-08-17T09:26:52;23.70;99.90
23403;DHT22;11874;48.228;11.684;2023-08-17T09:29:21;23.80;99.90
23403;DHT22;11874;48.228;11.684;2023-08-17T09:31:49;23.80;99.90
23403;DHT22;11874;48.228;11.684;2023-08-17T09:34:19;23.80;99.90
23403;DHT22;11874;48.228;11.684;2023-08-17T09:36:47;23.80;99.90
23403;DHT22;11874;48.228;11.684;2023-08-17T09:39:16;23.90;99.90
23403;DHT22;11874;48.228;11.684;2023-08-17T09:41:45;23.90;99.90
23403;DHT22;11874;48.228;11.684;2023-08-17T09:44:17;23.90;99.90
23403;DHT22;11874;48.228;11.684;2023-08-17T09:46:46;23.90;99.90
23403;DHT22;11874;48.228;11.684;2023-08-17T09:49:14;24.00;99.90
23403;DHT22;11874;48.228;11.684;2023-08-17T09:51:43;24.00;99.90
23403;DHT22;11874;48.228;11.684;2023-08-17T09:54:20;24.00;99.90
23403;DHT22;11874;48.228;11.684;2023-08-17T09:56:50;24.00;99.90
23403;DHT22;11874;48.228;11.684;2023-08-17T09:59:21;24.00;99.90
23403;DHT22;11874;48.228;11.684;2023-08-17T10:01:51;24.10;99.90
23403;DHT22;11874;48.228;11.684;2023-08-17T10:04:22;24.10;99.90
23403;DHT22;11874;48.228;11.684;2023-08-17T10:06:58;24.10;99.90
23403;DHT22;11874;48.228;11.684;2023-08-17T10:09:31;24.10;99.90
23403;DHT22;11874;48.228;11.684;2023-08-17T10:12:09;24.20;99.90
23403;DHT22;11874;48.228;11.684;2023-08-17T10:14:48;24.20;99.90
23403;DHT22;11874;48.228;11.684;2023-08-17T10:17:24;24.20;99.90
23403;DHT22;11874;48.228;11.684;2023-08-17T10:19:55;24.30;99.90
23403;DHT22;11874;48.228;11.684;2023-08-17T10:22:28;24.30;99.90
23403;DHT22;11874;48.228;11.684;2023-08-17T10:25:00;24.40;99.90
23403;DHT22;11874;48.228;11.684;2023-08-17T10:27:29;24.40;99.90
23403;DHT22;11874;48.228;11.684;2023-08-17T10:29:59;24.50;99.90
23403;DHT22;11874;48.228;11.684;2023-08-17T10:32:36;24.50;99.90
23403;DHT22;11874;48.228;11.684;2023-08-17T10:35:06;24.50;99.90
23403;DHT22;11874;48.228;11.684;2023-08-17T10:37:35;24.60;99.90
23403;DHT22;11874;48.228;11.684;2023-08-17T10:40:04;24.60;99.90
23403;DHT22;11874;48.228;11.684;2023-08-17T10:42:34;24.60;99.90
23403;DHT22;11874;48.228;11.684;2023-08-17T10:45:26;24.60;99.90
23403;DHT22;11874;48.228;11.684;2023-08-17T10:48:24;24.70;99.90
23403;DHT22;11874;48.228;11.684;2023-08-17T10:51:04;24.70;99.90
23403;DHT22;11874;48.228;11.684;2023-08-17T10:53:36;24.80;99.90
23403;DHT22;11874;48.228;11.684;2023-08-17T10:56:12;24.90;99.90
23403;DHT22;11874;48.228;11.684;2023-08-17T10:58:43;24.90;99.90
23403;DHT22;11874;48.228;11.684;2023-08-17T11:01:13;25.00;99.90
23403;DHT22;11874;48.228;11.684;2023-08-17T11:04:08;25.00;99.90
23403;DHT22;11874;48.228;11.684;2023-08-17T11:06:38;25.10;99.90
23403;DHT22;11874;48.228;11.684;2023-08-17T11:09:07;25.10;99.90
23403;DHT22;11874;48.228;11.684;2023-08-17T11:11:35;25.10;99.90
23403;DHT22;11874;48.228;11.684;2023-08-17T11:14:04;25.10;99.90
23403;DHT22;11874;48.228;11.684;2023-08-17T11:16:34;25.10;99.90
23403;DHT22;11874;48.228;11.684;2023-08-17T11:19:02;25.20;99.90
23403;DHT22;11874;48.228;11.684;2023-08-17T11:21:31;25.20;99.90
23403;DHT22;11874;48.228;11.684;2023-08-17T11:23:59;25.20;99.90
23403;DHT22;11874;48.228;11.684;2023-08-17T11:26:27;25.20;99.90
23403;DHT22;11874;48.228;11.684;2023-08-17T11:29:02;25.20;99.90
23403;DHT22;11874;48.228;11.684;2023-08-17T11:31:31;25.20;99.90
23403;DHT22;11874;48.228;11.684;2023-08-17T11:34:01;25.20;99.90
23403;DHT22;11874;48.228;11.684;2023-08-17T11:36:29;25.30;99.90
23403;DHT22;11874;48.228;11.684;2023-08-17T11:38:58;25.20;99.90
23403;DHT22;11874;48.228;11.684;2023-08-17T11:41:26;25.30;99.90
23403;DHT22;11874;48.228;11.684;2023-08-17T11:43:55;25.20;99.90
23403;DHT22;11874;48.228;11.684;2023-08-17T11:46:23;25.20;99.90
23403;DHT22;11874;48.228;11.684;2023-08-17T11:48:59;25.20;99.90
23403;DHT22;11874;48.228;11.684;2023-08-17T11:51:31;25.30;99.90
23403;DHT22;11874;48.228;11.684;2023-08-17T11:54:00;25.30;99.90
23403;DHT22;11874;48.228;11.684;2023-08-17T11:56:29;25.30;99.90
23403;DHT22;11874;48.228;11.684;2023-08-17T11:58:59;25.30;99.90
23403;DHT22;11874;48.228;11.684;2023-08-17T12:01:37;25.30;99.90
23403;DHT22;11874;48.228;11.684;2023-08-17T12:04:06;25.30;99.90
23403;DHT22;11874;48.228;11.684;2023-08-17T12:06:42;25.30;99.90
23403;DHT22;11874;48.228;11.684;2023-08-17T12:09:10;25.20;99.90
23403;DHT22;11874;48.228;11.684;2023-08-17T12:11:40;25.20;99.90
23403;DHT22;11874;48.228;11.684;2023-08-17T12:14:09;25.30;99.90
23403;DHT22;11874;48.228;11.684;2023-08-17T12:16:46;25.30;99.90
23403;DHT22;11874;48.228;11.684;2023-08-17T12:19:15;25.30;99.90
23403;DHT22;11874;48.228;11.684;2023-08-17T12:21:48;25.30;99.90
23403;DHT22;11874;48.228;11.684;2023-08-17T12:24:16;25.40;99.90
23403;DHT22;11874;48.228;11.684;2023-08-17T12:26:46;25.40;99.90
23403;DHT22;11874;48.228;11.684;2023-08-17T12:29:17;25.40;99.90
23403;DHT22;11874;48.228;11.684;2023-08-17T12:31:45;25.50;99.90
23403;DHT22;11874;48.228;11.684;2023-08-17T12:34:14;25.50;99.90
23403;DHT22;11874;48.228;11.684;2023-08-17T12:36:43;25.50;99.90
23403;DHT22;11874;48.228;11.684;2023-08-17T12:39:13;25.50;99.90
23403;DHT22;11874;48.228;11.684;2023-08-17T12:41:41;25.60;99.90
23403;DHT22;11874;48.228;11.684;2023-08-17T12:44:10;25.60;99.90
23403;DHT22;11874;48.228;11.684;2023-08-17T12:46:43;25.70;99.90
23403;DHT22;11874;48.228;11.684;2023-08-17T12:49:11;25.70;99.90
23403;DHT22;11874;48.228;11.684;2023-08-17T12:51:39;25.80;99.90
23403;DHT22;11874;48.228;11.684;2023-08-17T12:54:13;25.80;99.90
23403;DHT22;11874;48.228;11.684;2023-08-17T12:56:41;25.80;99.90
23403;DHT22;11874;48.228;11.684;2023-08-17T12:59:09;25.80;99.90
23403;DHT22;11874;48.228;11.684;2023-08-17T13:01:37;25.90;99.90
23403;DHT22;11874;48.228;11.684;2023-08-17T13:04:06;25.90;99.90
23403;DHT22;11874;48.228;11.684;2023-08-17T13:06:34;25.90;99.90
23403;DHT22;11874;48.228;11.684;2023-08-17T13:09:17;25.90;99.90
23403;DHT22;11874;48.228;11.684;2023-08-17T13:11:45;26.00;99.90
23403;DHT22;11874;48.228;11.684;2023-08-17T13:14:14;26.00;99.90
23403;DHT22;11874;48.228;11.684;2023-08-17T13:16:42;26.10;99.90
23403;DHT22;11874;48.228;11.684;2023-08-17T13:19:10;26.10;99.90
23403;DHT22;11874;48.228;11.684;2023-08-17T13:21:38;26.20;99.90
23403;DHT22;11874;48.228;11.684;2023-08-17T13:24:07;26.20;99.90
23403;DHT22;11874;48.228;11.684;2023-08-17T13:26:37;26.30;99.90
23403;DHT22;11874;48.228;11.684;2023-08-17T13:29:05;26.40;99.90
23403;DHT22;11874;48.228;11.684;2023-08-17T13:31:33;26.40;99.90
23403;DHT22;11874;48.228;11.684;2023-08-17T13:34:01;26.40;99.90
23403;DHT22;11874;48.228;11.684;2023-08-17T13:36:28;26.50;99.90
23403;DHT22;11874;48.228;11.684;2023-08-17T13:38:56;26.60;99.90
23403;DHT22;11874;48.228;11.684;2023-08-17T13:41:24;26.60;99.90
23403;DHT22;11874;48.228;11.684;2023-08-17T13:43:55;26.70;99.90
23403;DHT22;11874;48.228;11.684;2023-08-17T13:46:26;26.70;99.90
23403;DHT22;11874;48.228;11.684;2023-08-17T13:48:54;26.70;99.90
23403;DHT22;11874;48.228;11.684;2023-08-17T13:51:22;26.80;99.90
23403;DHT22;11874;48.228;11.684;2023-08-17T13:53:50;26.80;99.90
23403;DHT22;11874;48.228;11.684;2023-08-17T13:56:19;26.90;99.90
23403;DHT22;11874;48.228;11.684;2023-08-17T13:58:47;27.00;99.90
23403;DHT22;11874;48.228;11.684;2023-08-17T14:01:17;27.10;99.90
23403;DHT22;11874;48.228;11.684;2023-08-17T14:03:45;27.40;99.90
23403;DHT22;11874;48.228;11.684;2023-08-17T14:06:13;28.90;99.90
23403;DHT22;11874;48.228;11.684;2023-08-17T14:08:42;31.00;99.90
23403;DHT22;11874;48.228;11.684;2023-08-17T14:11:10;32.70;99.90
23403;DHT22;11874;48.228;11.684;2023-08-17T14:13:38;33.90;99.90
23403;DHT22;11874;48.228;11.684;2023-08-17T14:16:09;34.60;99.90
23403;DHT22;11874;48.228;11.684;2023-08-17T14:18:38;34.70;98.50
23403;DHT22;11874;48.228;11.684;2023-08-17T14:21:06;34.20;97.90
23403;DHT22;11874;48.228;11.684;2023-08-17T14:23:34;33.40;98.00
23403;DHT22;11874;48.228;11.684;2023-08-17T14:26:02;32.70;98.20
23403;DHT22;11874;48.228;11.684;2023-08-17T14:28:30;32.00;98.60
23403;DHT22;11874;48.228;11.684;2023-08-17T14:30:59;31.40;98.80
23403;DHT22;11874;48.228;11.684;2023-08-17T14:33:27;30.90;99.20
23403;DHT22;11874;48.228;11.684;2023-08-17T14:35:56;30.40;99.80
23403;DHT22;11874;48.228;11.684;2023-08-17T14:38:24;30.20;99.90
23403;DHT22;11874;48.228;11.684;2023-08-17T14:40:57;30.20;99.90
23403;DHT22;11874;48.228;11.684;2023-08-17T14:43:25;30.20;99.90
23403;DHT22;11874;48.228;11.684;2023-08-17T14:45:53;30.40;99.90
23403;DHT22;11874;48.228;11.684;2023-08-17T14:48:21;30.50;99.90
23403;DHT22;11874;48.228;11.684;2023-08-17T14:50:49;30.70;99.90
23403;DHT22;11874;48.228;11.684;2023-08-17T14:53:19;30.80;99.90
23403;DHT22;11874;48.228;11.684;2023-08-17T14:55:47;31.00;99.90
23403;DHT22;11874;48.228;11.684;2023-08-17T14:58:16;31.20;99.90
23403;DHT22;11874;48.228;11.684;2023-08-17T15:00:45;31.30;99.90
23403;DHT22;11874;48.228;11.684;2023-08-17T15:03:13;31.50;99.70
23403;DHT22;11874;48.228;11.684;2023-08-17T15:05:41;31.60;99.30
23403;DHT22;11874;48.228;11.684;2023-08-17T15:08:09;31.80;99.00
23403;DHT22;11874;48.228;11.684;2023-08-17T15:10:39;31.90;99.00
23403;DHT22;11874;48.228;11.684;2023-08-17T15:13:07;32.00;98.90
23403;DHT22;11874;48.228;11.684;2023-08-17T15:15:37;32.10;98.70
23403;DHT22;11874;48.228;11.684;2023-08-17T15:18:05;32.30;98.30
23403;DHT22;11874;48.228;11.684;2023-08-17T15:20:33;32.30;97.90
23403;DHT22;11874;48.228;11.684;2023-08-17T15:23:01;32.50;97.70
23403;DHT22;11874;48.228;11.684;2023-08-17T15:25:29;32.50;97.20
23403;DHT22;11874;48.228;11.684;2023-08-17T15:27:58;32.50;97.10
23403;DHT22;11874;48.228;11.684;2023-08-17T15:30:27;32.50;96.90
23403;DHT22;11874;48.228;11.684;2023-08-17T15:32:56;32.40;96.60
23403;DHT22;11874;48.228;11.684;2023-08-17T15:35:24;32.30;96.30
23403;DHT22;11874;48.228;11.684;2023-08-17T15:37:52;32.10;96.30
23403;DHT22;11874;48.228;11.684;2023-08-17T15:40:20;31.90;96.30
23403;DHT22;11874;48.228;11.684;2023-08-17T15:42:49;31.70;96.10
23403;DHT22;11874;48.228;11.684;2023-08-17T15:45:18;31.40;96.10
23403;DHT22;11874;48.228;11.684;2023-08-17T15:47:47;30.90;96.10
23403;DHT22;11874;48.228;11.684;2023-08-17T15:50:15;30.60;96.50
23403;DHT22;11874;48.228;11.684;2023-08-17T15:52:45;30.30;96.70
23403;DHT22;11874;48.228;11.684;2023-08-17T15:55:13;30.00;96.90
23403;DHT22;11874;48.228;11.684;2023-08-17T15:57:41;29.70;97.10
23403;DHT22;11874;48.228;11.684;2023-08-17T16:00:10;29.60;97.20
23403;DHT22;11874;48.228;11.684;2023-08-17T16:02:40;29.30;97.50
23403;DHT22;11874;48.228;11.684;2023-08-17T16:05:08;29.10;97.60
23403;DHT22;11874;48.228;11.684;2023-08-17T16:07:36;29.10;97.50
23403;DHT22;11874;48.228;11.684;2023-08-17T16:10:05;28.80;97.40
23403;DHT22;11874;48.228;11.684;2023-08-17T16:12:34;28.70;97.50
23403;DHT22;11874;48.228;11.684;2023-08-17T16:15:09;28.60;97.50
23403;DHT22;11874;48.228;11.684;2023-08-17T16:17:37;28.50;97.70
23403;DHT22;11874;48.228;11.684;2023-08-17T16:20:08;28.30;97.90
23403;DHT22;11874;48.228;11.684;2023-08-17T16:22:36;28.20;98.00
23403;DHT22;11874;48.228;11.684;2023-08-17T16:25:05;28.10;98.20
23403;DHT22;11874;48.228;11.684;2023-08-17T16:27:34;28.00;98.30
23403;DHT22;11874;48.228;11.684;2023-08-17T16:30:05;27.90;98.40
23403;DHT22;11874;48.228;11.684;2023-08-17T16:32:34;27.80;98.40
23403;DHT22;11874;48.228;11.684;2023-08-17T16:35:02;27.80;98.40
23403;DHT22;11874;48.228;11.684;2023-08-17T16:37:32;27.70;98.50
23403;DHT22;11874;48.228;11.684;2023-08-17T16:40:07;27.70;98.70
23403;DHT22;11874;48.228;11.684;2023-08-17T16:42:49;27.60;98.70
23403;DHT22;11874;48.228;11.684;2023-08-17T16:45:17;27.50;98.80
23403;DHT22;11874;48.228;11.684;2023-08-17T16:47:46;27.50;98.60
23403;DHT22;11874;48.228;11.684;2023-08-17T16:50:14;27.50;97.90
23403;DHT22;11874;48.228;11.684;2023-08-17T16:52:43;27.40;97.50
23403;DHT22;11874;48.228;11.684;2023-08-17T16:55:11;27.30;97.20
23403;DHT22;11874;48.228;11.684;2023-08-17T16:57:40;27.10;97.00
23403;DHT22;11874;48.228;11.684;2023-08-17T17:00:09;26.90;96.90
23403;DHT22;11874;48.228;11.684;2023-08-17T17:02:38;26.80;96.90
23403;DHT22;11874;48.228;11.684;2023-08-17T17:05:07;26.60;96.90
23403;DHT22;11874;48.228;11.684;2023-08-17T17:07:35;26.50;96.80
23403;DHT22;11874;48.228;11.684;2023-08-17T17:10:06;26.40;96.80
23403;DHT22;11874;48.228;11.684;2023-08-17T17:12:38;26.30;96.70
23403;DHT22;11874;48.228;11.684;2023-08-17T17:15:08;26.20;96.60
23403;DHT22;11874;48.228;11.684;2023-08-17T17:17:36;26.10;96.50
23403;DHT22;11874;48.228;11.684;2023-08-17T17:20:05;26.10;96.50
23403;DHT22;11874;48.228;11.684;2023-08-17T17:22:34;26.00;96.50
23403;DHT22;11874;48.228;11.684;2023-08-17T17:25:03;26.00;96.50
23403;DHT22;11874;48.228;11.684;2023-08-17T17:27:34;25.90;96.50
23403;DHT22;11874;48.228;11.684;2023-08-17T17:30:03;25.80;96.50
23403;DHT22;11874;48.228;11.684;2023-08-17T17:32:32;25.70;96.60
23403;DHT22;11874;48.228;11.684;2023-08-17T17:35:01;25.70;96.60
23403;DHT22;11874;48.228;11.684;2023-08-17T17:37:30;25.60;96.60
23403;DHT22;11874;48.228;11.684;2023-08-17T17:39:58;25.60;96.70
23403;DHT22;11874;48.228;11.684;2023-08-17T17:42:28;25.50;96.90
23403;DHT22;11874;48.228;11.684;2023-08-17T17:44:56;25.50;97.10
23403;DHT22;11874;48.228;11.684;2023-08-17T17:47:24;25.40;97.20
23403;DHT22;11874;48.228;11.684;2023-08-17T17:49:54;25.40;97.40
23403;DHT22;11874;48.228;11.684;2023-08-17T17:52:22;25.30;97.50
23403;DHT22;11874;48.228;11.684;2023-08-17T17:54:53;25.30;97.60
23403;DHT22;11874;48.228;11.684;2023-08-17T17:57:21;25.20;98.10
23403;DHT22;11874;48.228;11.684;2023-08-17T17:59:51;25.20;97.80
23403;DHT22;11874;48.228;11.684;2023-08-17T18:02:24;25.10;97.90
23403;DHT22;11874;48.228;11.684;2023-08-17T18:04:54;25.00;98.00
23403;DHT22;11874;48.228;11.684;2023-08-17T18:07:21;25.00;98.00
23403;DHT22;11874;48.228;11.684;2023-08-17T18:09:49;24.90;98.00
23403;DHT22;11874;48.228;11.684;2023-08-17T18:12:17;24.80;98.00
23403;DHT22;11874;48.228;11.684;2023-08-17T18:14:45;24.80;98.20
23403;DHT22;11874;48.228;11.684;2023-08-17T18:17:15;24.80;98.20
23403;DHT22;11874;48.228;11.684;2023-08-17T18:19:43;24.80;98.30
23403;DHT22;11874;48.228;11.684;2023-08-17T18:22:11;24.80;98.20
23403;DHT22;11874;48.228;11.684;2023-08-17T18:24:39;24.70;98.20
23403;DHT22;11874;48.228;11.684;2023-08-17T18:27:07;24.70;98.30
23403;DHT22;11874;48.228;11.684;2023-08-17T18:29:35;24.60;98.40
23403;DHT22;11874;48.228;11.684;2023-08-17T18:32:04;24.60;98.60
23403;DHT22;11874;48.228;11.684;2023-08-17T18:34:33;24.60;98.70
23403;DHT22;11874;48.228;11.684;2023-08-17T18:37:02;24.60;98.90
23403;DHT22;11874;48.228;11.684;2023-08-17T18:39:30;24.60;99.00
23403;DHT22;11874;48.228;11.684;2023-08-17T18:41:58;24.60;99.10
23403;DHT22;11874;48.228;11.684;2023-08-17T18:44:26;24.60;99.20
23403;DHT22;11874;48.228;11.684;2023-08-17T18:46:54;24.60;99.30
23403;DHT22;11874;48.228;11.684;2023-08-17T18:49:22;24.60;99.40
23403;DHT22;11874;48.228;11.684;2023-08-17T18:51:52;24.60;99.30
23403;DHT22;11874;48.228;11.684;2023-08-17T18:54:20;24.50;99.40
23403;DHT22;11874;48.228;11.684;2023-08-17T18:56:48;24.60;99.40
23403;DHT22;11874;48.228;11.684;2023-08-17T18:59:17;24.50;99.40
23403;DHT22;11874;48.228;11.684;2023-08-17T19:01:45;24.50;99.40
23403;DHT22;11874;48.228;11.684;2023-08-17T19:04:13;24.50;99.40
23403;DHT22;11874;48.228;11.684;2023-08-17T19:06:41;24.50;99.30
23403;DHT22;11874;48.228;11.684;2023-08-17T19:09:10;24.40;99.20
23403;DHT22;11874;48.228;11.684;2023-08-17T19:11:38;24.40;99.20
23403;DHT22;11874;48.228;11.684;2023-08-17T19:14:07;24.50;99.30
23403;DHT22;11874;48.228;11.684;2023-08-17T19:16:35;24.50;99.30
23403;DHT22;11874;48.228;11.684;2023-08-17T19:19:03;24.50;99.30
23403;DHT22;11874;48.228;11.684;2023-08-17T19:21:32;24.50;99.30
23403;DHT22;11874;48.228;11.684;2023-08-17T19:24:00;24.50;99.30
23403;DHT22;11874;48.228;11.684;2023-08-17T19:26:30;24.40;99.30
23403;DHT22;11874;48.228;11.684;2023-08-17T19:28:57;24.50;99.20
23403;DHT22;11874;48.228;11.684;2023-08-17T19:31:25;24.50;99.20
23403;DHT22;11874;48.228;11.684;2023-08-17T19:33:54;24.40;99.20
23403;DHT22;11874;48.228;11.684;2023-08-17T19:36:21;24.40;99.30
23403;DHT22;11874;48.228;11.684;2023-08-17T19:38:50;24.40;99.50
23403;DHT22;11874;48.228;11.684;2023-08-17T19:41:17;24.40;99.70
23403;DHT22;11874;48.228;11.684;2023-08-17T19:43:47;24.40;99.90
23403;DHT22;11874;48.228;11.684;2023-08-17T19:46:15;24.30;99.90
23403;DHT22;11874;48.228;11.684;2023-08-17T19:48:43;24.30;99.90
23403;DHT22;11874;48.228;11.684;2023-08-17T19:51:11;24.20;99.90
23403;DHT22;11874;48.228;11.684;2023-08-17T19:53:40;24.20;99.90
23403;DHT22;11874;48.228;11.684;2023-08-17T19:56:08;24.10;99.90
23403;DHT22;11874;48.228;11.684;2023-08-17T19:58:36;24.20;99.90
23403;DHT22;11874;48.228;11.684;2023-08-17T20:01:06;24.10;99.90
23403;DHT22;11874;48.228;11.684;2023-08-17T20:03:34;24.10;99.90
23403;DHT22;11874;48.228;11.684;2023-08-17T20:06:03;24.10;99.90
23403;DHT22;11874;48.228;11.684;2023-08-17T20:08:32;24.10;99.90
23403;DHT22;11874;48.228;11.684;2023-08-17T20:11:07;24.00;99.90
23403;DHT22;11874;48.228;11.684;2023-08-17T20:13:38;24.10;99.90
23403;DHT22;11874;48.228;11.684;2023-08-17T20:16:07;24.00;99.90
23403;DHT22;11874;48.228;11.684;2023-08-17T20:18:36;24.00;99.90
23403;DHT22;11874;48.228;11.684;2023-08-17T20:21:05;24.00;99.90
23403;DHT22;11874;48.228;11.684;2023-08-17T20:23:33;24.00;99.90
23403;DHT22;11874;48.228;11.684;2023-08-17T20:26:02;24.10;99.90
23403;DHT22;11874;48.228;11.684;2023-08-17T20:28:30;24.10;99.90
23403;DHT22;11874;48.228;11.684;2023-08-17T20:30:58;24.10;99.90
23403;DHT22;11874;48.228;11.684;2023-08-17T20:33:28;24.10;99.90
23403;DHT22;11874;48.228;11.684;2023-08-17T20:35:57;24.10;99.90
23403;DHT22;11874;48.228;11.684;2023-08-17T20:38:25;24.00;99.90
23403;DHT22;11874;48.228;11.684;2023-08-17T20:40:54;24.00;99.90
23403;DHT22;11874;48.228;11.684;2023-08-17T20:43:22;24.00;99.90
23403;DHT22;11874;48.228;11.684;2023-08-17T20:45:50;24.00;99.90
23403;DHT22;11874;48.228;11.684;2023-08-17T20:48:18;24.00;99.90
23403;DHT22;11874;48.228;11.684;2023-08-17T20:50:47;24.00;99.90
23403;DHT22;11874;48.228;11.684;2023-08-17T20:53:15;24.00;99.90
23403;DHT22;11874;48.228;11.684;2023-08-17T20:55:44;24.00;99.90
23403;DHT22;11874;48.228;11.684;2023-08-17T20:58:13;24.00;99.90
23403;DHT22;11874;48.228;11.684;2023-08-17T21:00:41;24.00;99.90
23403;DHT22;11874;48.228;11.684;2023-08-17T21:03:09;24.00;99.90
23403;DHT22;11874;48.228;11.684;2023-08-17T21:05:38;24.00;99.90
23403;DHT22;11874;48.228;11.684;2023-08-17T21:08:07;24.00;99.90
23403;DHT22;11874;48.228;11.684;2023-08-17T21:10:35;24.00;99.90
23403;DHT22;11874;48.228;11.684;2023-08-17T21:13:04;23.90;99.90
23403;DHT22;11874;48.228;11.684;2023-08-17T21:15:32;23.90;99.90
23403;DHT22;11874;48.228;11.684;2023-08-17T21:18:00;23.90;99.90
23403;DHT22;11874;48.228;11.684;2023-08-17T21:20:29;23.90;99.90
23403;DHT22;11874;48.228;11.684;2023-08-17T21:23:00;23.90;99.90
